CDT,Max TemperatureF,Mean TemperatureF,Min TemperatureF,Max Dew PointF,MeanDew PointF,Min DewpointF,Max Humidity, Mean Humidity, Min Humidity, Max Sea Level PressureIn, Mean Sea Level PressureIn, Min Sea Level PressureIn, Max VisibilityMiles, Mean VisibilityMiles, Min VisibilityMiles, Max Wind SpeedMPH, Mean Wind SpeedMPH, Max Gust SpeedMPH,PrecipitationIn, CloudCover, Events, WindDirDegrees
2013-5-1,80,66,53,61,57,52,94,68,44,30.09,29.95,29.86,10,10,10,16,6,26,0.00,0,,128
2013-5-2,60,46,32,57,42,32,100,90,81,30.34,30.23,30.04,10,8,1,22,10,31,0.29,7,Snow,339
2013-5-3,53,42,32,37,33,28,100,70,41,30.30,30.12,29.98,10,10,4,24,13,31,0.02,3,Snow,336
2013-5-4,46,42,37,39,37,34,100,84,70,30.03,29.94,29.89,10,8,2,16,7,23,0.21,6,Snow,317
2013-5-5,55,44,33,46,41,32,100,86,67,30.12,30.08,30.04,10,10,10,14,5,18,0.00,5,,327
2013-5-6,68,55,42,54,49,43,100,85,56,30.13,30.07,30.02,10,8,4,10,2,,0.00,3,,337
2013-5-7,77,60,42,55,50,43,100,73,36,30.11,30.05,29.99,10,8,2,9,1,,0.00,0,,150
2013-5-8,80,66,51,59,54,48,94,65,44,30.05,29.98,29.91,10,10,5,16,3,23,0.03,0,,152
2013-5-9,73,65,57,63,60,55,100,87,61,30.00,29.96,29.89,10,7,1,13,6,23,0.48,5,Rain,204
2013-5-10,71,61,51,63,57,50,100,85,60,30.08,29.99,29.93,10,8,0,13,3,18,0.02,4,Fog,337
2013-5-11,73,60,46,55,48,36,100,70,37,30.23,30.14,30.08,10,10,5,18,3,22,0.00,0,,340
2013-5-12,69,54,39,45,38,34,87,57,30,30.29,30.23,30.16,10,10,10,8,2,,0.00,0,,40
2013-5-13,82,64,46,59,49,43,87,60,37,30.17,30.12,30.05,10,10,10,15,3,23,0.00,0,,202
2013-5-14,84,70,55,59,53,48,82,53,30,30.10,30.04,29.97,10,10,10,14,4,25,0.00,0,,197
2013-5-15,71,66,60,66,59,50,100,80,52,30.02,29.97,29.85,10,8,0,12,5,18,0.68,4,Fog,156
2013-5-16,69,64,60,63,61,59,100,92,78,29.90,29.86,29.81,10,9,2,10,4,,0.04,5,,133
2013-5-17,80,66,53,68,62,54,100,84,58,29.94,29.91,29.87,10,7,0,6,2,,0.00,4,Fog,137
2013-5-18,86,75,64,72,69,64,100,80,58,29.92,29.87,29.80,10,7,4,14,5,18,0.00,3,,145
2013-5-19,86,76,66,68,64,61,94,65,48,29.87,29.76,29.67,10,10,10,21,8,28,0.00,1,,164
2013-5-20,77,70,62,68,65,55,94,80,64,29.82,29.76,29.67,10,9,1,17,8,29,0.29,4,,162
2013-5-21,64,60,55,61,58,55,100,92,77,29.96,29.82,29.65,10,8,2,22,6,33,1.10,4,,196
2013-5-22,77,62,46,61,55,46,100,81,47,29.96,29.89,29.84,10,7,0,13,2,16,0.00,2,Fog,256
2013-5-23,69,61,53,63,58,52,100,90,73,30.15,30.06,29.96,10,10,7,12,1,16,0.00,0,,34
2013-5-24,78,68,57,63,58,54,88,71,54,30.25,30.19,30.15,10,10,10,14,8,20,0.00,0,,111
2013-5-25,80,70,60,64,58,50,83,65,53,30.23,30.16,30.06,10,10,10,15,8,20,0.00,1,,141
2013-5-26,80,73,66,68,64,59,94,73,54,30.12,30.06,29.99,10,10,10,15,6,22,0.00,2,,159
2013-5-27,82,75,68,68,64,59,88,70,54,30.01,29.91,29.82,10,10,10,18,10,29,0.00,2,,165
2013-5-28,80,74,69,64,64,63,83,69,57,29.89,29.84,29.79,10,10,7,20,12,29,0.00,0,,167
2013-5-29,78,74,69,66,64,63,78,70,61,29.89,29.84,29.76,10,10,10,20,9,29,0.00,2,,152
2013-5-30,77,68,60,70,65,59,100,87,65,29.84,29.77,29.72,10,9,1,22,11,32,1.07,5,,149
2013-5-31,86,77,68,72,69,66,100,79,58,29.82,29.78,29.65,10,10,7,18,10,28,0.00,4,,172